createdAt,value
2023-03-21T00:00:40.830Z,7.39
2023-03-21T00:03:09.009Z,7.42
2023-03-21T00:05:51.650Z,7.41
2023-03-21T00:08:23.906Z,7.45
2023-03-21T00:11:05.878Z,7.33
2023-03-21T00:13:38.354Z,7.24
2023-03-21T00:16:17.772Z,7.21
2023-03-21T00:18:55.017Z,7.19
2023-03-21T00:24:15.730Z,7.20
2023-03-21T00:26:42.936Z,7.15
2023-03-21T00:29:10.130Z,7.19
2023-03-21T00:31:37.745Z,7.23
2023-03-21T00:34:05.236Z,7.16
2023-03-21T00:36:32.785Z,7.07
2023-03-21T00:39:00.827Z,7.04
2023-03-21T00:41:41.602Z,7.05
2023-03-21T00:44:15.547Z,6.98
2023-03-21T00:46:54.400Z,6.92
2023-03-21T00:49:24.508Z,6.91
2023-03-21T00:51:53.303Z,6.89
2023-03-21T00:54:20.618Z,6.83
2023-03-21T00:56:47.834Z,6.76
2023-03-21T00:59:15.381Z,6.76
2023-03-21T01:01:46.497Z,6.72
2023-03-21T01:04:16.462Z,6.71
2023-03-21T01:06:45.088Z,6.70
2023-03-21T01:09:18.703Z,6.66
2023-03-21T01:11:46.345Z,6.63
2023-03-21T01:14:23.060Z,6.61
2023-03-21T01:16:53.362Z,6.61
2023-03-21T01:19:37.627Z,6.62
2023-03-21T01:22:12.288Z,6.65
2023-03-21T01:24:50.236Z,6.61
2023-03-21T01:27:20.321Z,6.63
2023-03-21T01:29:49.258Z,6.61
2023-03-21T01:32:16.722Z,6.54
2023-03-21T01:34:44.057Z,6.45
2023-03-21T01:37:11.357Z,6.44
2023-03-21T01:39:45.957Z,6.49
2023-03-21T01:42:14.247Z,6.51
2023-03-21T01:45:00.544Z,6.49
2023-03-21T01:47:38.932Z,6.47
2023-03-21T01:50:22.174Z,6.49
2023-03-21T01:52:58.375Z,6.47
2023-03-21T01:55:32.180Z,6.51
2023-03-21T01:58:12.642Z,6.47
2023-03-21T02:01:03.056Z,6.41
2023-03-21T02:03:52.448Z,6.33
2023-03-21T02:06:44.697Z,6.20
2023-03-21T02:09:34.764Z,6.10
2023-03-21T02:12:04.232Z,6.05
2023-03-21T02:14:36.501Z,6.07
2023-03-21T02:17:54.526Z,5.95
2023-03-21T02:21:58.858Z,5.92
2023-03-21T02:25:01.525Z,6.06
2023-03-21T02:27:46.964Z,6.07
2023-03-21T02:31:07.139Z,6.07
2023-03-21T02:33:37.147Z,6.02
2023-03-21T02:36:34.074Z,6.01
2023-03-21T02:39:24.327Z,5.93
2023-03-21T02:42:21.282Z,5.93
2023-03-21T02:45:35.103Z,5.92
2023-03-21T02:48:27.844Z,5.83
2023-03-21T02:51:01.039Z,5.70
2023-03-21T02:53:36.992Z,5.66
2023-03-21T02:56:10.661Z,5.77
2023-03-21T02:58:43.807Z,5.79
2023-03-21T03:01:11.174Z,5.70
2023-03-21T03:03:43.890Z,5.60
2023-03-21T03:06:27.617Z,5.69
2023-03-21T03:09:23.257Z,5.71
2023-03-21T03:12:23.046Z,5.54
2023-03-21T03:15:23.496Z,5.48
2023-03-21T03:18:52.802Z,5.40
2023-03-21T03:21:51.985Z,5.32
2023-03-21T03:24:46.082Z,5.35
2023-03-21T03:27:29.642Z,5.44
2023-03-21T03:30:02.142Z,5.57
2023-03-21T03:32:44.854Z,5.66
2023-03-21T03:35:18.080Z,5.69
2023-03-21T03:37:57.209Z,5.67
2023-03-21T03:40:35.922Z,5.60
2023-03-21T03:43:32.948Z,5.60
2023-03-21T03:46:16.796Z,5.73
2023-03-21T03:48:55.335Z,5.70
2023-03-21T03:51:53.092Z,5.70
2023-03-21T03:54:44.160Z,5.64
2023-03-21T03:57:13.778Z,5.68
2023-03-21T03:59:45.178Z,5.68
2023-03-21T04:02:24.576Z,5.67
2023-03-21T04:04:53.228Z,5.71
2023-03-21T04:07:22.271Z,5.70
2023-03-21T04:09:51.875Z,5.69
2023-03-21T04:12:21.048Z,5.60
2023-03-21T04:15:16.834Z,5.50
2023-03-21T04:17:49.073Z,5.43
2023-03-21T04:20:26.801Z,5.41
2023-03-21T04:23:01.953Z,5.34
2023-03-21T04:25:33.894Z,5.35
2023-03-21T04:28:03.293Z,5.31
2023-03-21T04:30:39.807Z,5.31
2023-03-21T04:33:13.567Z,5.33
2023-03-21T04:35:45.955Z,5.30
2023-03-21T04:38:14.568Z,5.32
2023-03-21T04:40:41.864Z,5.32
2023-03-21T04:43:09.126Z,5.28
2023-03-21T04:45:39.551Z,5.22
2023-03-21T04:48:06.831Z,5.12
2023-03-21T04:50:34.087Z,5.05
2023-03-21T04:53:01.235Z,4.97
2023-03-21T04:55:29.372Z,5.05
2023-03-21T04:57:56.573Z,5.08
2023-03-21T05:00:25.680Z,5.10
2023-03-21T05:02:52.914Z,5.06
2023-03-21T05:05:21.527Z,5.12
2023-03-21T05:07:48.756Z,5.19
2023-03-21T05:10:16.371Z,5.24
2023-03-21T05:12:43.985Z,5.28
2023-03-21T05:15:11.444Z,5.27
2023-03-21T05:17:38.821Z,5.20
2023-03-21T05:20:09.293Z,5.14
2023-03-21T05:22:40.424Z,5.11
2023-03-21T05:25:11.632Z,5.10
2023-03-21T05:27:57.464Z,5.05
2023-03-21T05:30:28.862Z,5.05
2023-03-21T05:33:00.296Z,5.03
2023-03-21T05:35:28.165Z,5.04
2023-03-21T05:37:58.175Z,5.07
2023-03-21T05:40:28.271Z,5.09
2023-03-21T05:42:58.183Z,5.05
2023-03-21T05:45:26.202Z,4.99
2023-03-21T05:47:54.157Z,5.04
2023-03-21T05:50:25.384Z,5.10
2023-03-21T05:53:07.063Z,5.02
2023-03-21T05:55:34.379Z,5.08
2023-03-21T05:58:01.896Z,5.09
2023-03-21T06:00:31.320Z,5.11
2023-03-21T06:03:21.436Z,5.19
2023-03-21T06:06:17.633Z,5.26
2023-03-21T06:08:54.540Z,5.32
2023-03-21T06:11:48.558Z,5.40
2023-03-21T06:14:26.074Z,5.49
2023-03-21T06:17:12.093Z,5.59
2023-03-21T06:19:46.312Z,5.70
2023-03-21T06:22:29.499Z,5.72
2023-03-21T06:24:56.756Z,5.81
2023-03-21T06:27:24.267Z,5.93
2023-03-21T06:29:54.514Z,5.96
2023-03-21T06:32:22.649Z,6.03
2023-03-21T06:34:54.950Z,6.14
2023-03-21T06:37:22.300Z,6.27
2023-03-21T06:39:49.664Z,6.32
2023-03-21T06:42:17.016Z,6.37
2023-03-21T06:44:44.217Z,6.45
2023-03-21T06:47:14.864Z,6.56
2023-03-21T06:49:44.610Z,6.67
2023-03-21T06:52:13.139Z,6.79
2023-03-21T06:54:41.133Z,6.91
2023-03-21T06:57:13.509Z,7.01
2023-03-21T06:59:43.394Z,7.12
2023-03-21T07:02:20.003Z,7.21
2023-03-21T07:05:06.725Z,7.29
2023-03-21T07:07:33.959Z,7.34
2023-03-21T07:10:01.210Z,7.39
2023-03-21T07:12:34.221Z,7.44
2023-03-21T07:15:17.757Z,7.61
2023-03-21T07:17:46.670Z,7.70
2023-03-21T07:20:14.171Z,7.79
2023-03-21T07:22:41.481Z,7.82
2023-03-21T07:25:09.783Z,7.96
2023-03-21T07:27:41.535Z,8.14
2023-03-21T07:30:11.307Z,8.27
2023-03-21T07:32:39.350Z,8.35
2023-03-21T07:35:14.608Z,8.43
2023-03-21T07:37:43.002Z,8.43
2023-03-21T07:40:14.076Z,8.45
2023-03-21T07:42:41.862Z,8.49
2023-03-21T07:45:15.562Z,8.57
2023-03-21T07:47:43.279Z,8.72
2023-03-21T07:50:10.973Z,8.85
2023-03-21T07:52:38.934Z,8.93
2023-03-21T07:55:06.954Z,9.09
2023-03-21T07:57:34.709Z,9.24
2023-03-21T08:00:02.055Z,9.43
2023-03-21T08:02:29.374Z,9.46
2023-03-21T08:04:56.583Z,9.52
2023-03-21T08:07:23.777Z,9.59
2023-03-21T08:09:51.000Z,9.69
2023-03-21T08:12:18.161Z,9.80
2023-03-21T08:14:45.375Z,9.99
2023-03-21T08:17:12.549Z,10.06
2023-03-21T08:19:39.707Z,10.21
2023-03-21T08:22:06.904Z,10.28
2023-03-21T08:24:34.150Z,10.47
2023-03-21T08:27:02.203Z,10.61
2023-03-21T08:29:29.506Z,10.64
2023-03-21T08:31:58.002Z,10.76
2023-03-21T08:34:26.345Z,10.92
2023-03-21T08:36:54.485Z,10.90
2023-03-21T08:39:21.933Z,11.04
2023-03-21T08:41:49.163Z,11.05
2023-03-21T08:44:17.018Z,11.16
2023-03-21T08:46:44.269Z,11.26
2023-03-21T08:49:12.680Z,11.37
2023-03-21T08:51:41.132Z,11.56
2023-03-21T08:54:08.456Z,11.67
2023-03-21T08:56:37.383Z,11.89
2023-03-21T08:59:04.743Z,11.91
2023-03-21T09:01:32.626Z,12.07
2023-03-21T09:03:59.846Z,12.27
2023-03-21T09:06:27.524Z,12.27
2023-03-21T09:08:54.695Z,12.61
2023-03-21T09:11:21.857Z,12.47
2023-03-21T09:13:49.160Z,12.44
2023-03-21T09:16:16.444Z,12.55
2023-03-21T09:18:50.530Z,12.67
2023-03-21T09:21:19.965Z,12.62
2023-03-21T09:23:48.706Z,12.80
2023-03-21T09:26:17.138Z,12.89
2023-03-21T09:28:44.484Z,12.99
2023-03-21T09:31:14.586Z,13.25
2023-03-21T09:33:43.236Z,13.32
2023-03-21T09:36:14.025Z,13.27
2023-03-21T09:38:46.697Z,13.62
2023-03-21T09:41:34.987Z,13.77
2023-03-21T09:44:22.677Z,13.38
2023-03-21T09:47:25.209Z,13.81
2023-03-21T09:50:13.760Z,13.95
2023-03-21T09:53:18.626Z,14.03
2023-03-21T09:55:47.020Z,14.13
2023-03-21T09:58:36.522Z,13.93
2023-03-21T10:01:34.467Z,14.19
2023-03-21T10:04:07.192Z,14.49
2023-03-21T10:06:41.188Z,14.43
2023-03-21T10:09:22.853Z,14.21
2023-03-21T10:12:07.356Z,14.48
2023-03-21T10:14:44.452Z,14.90
2023-03-21T10:17:41.201Z,14.89
2023-03-21T10:20:26.799Z,15.10
2023-03-21T10:22:57.042Z,15.24
2023-03-21T10:25:39.715Z,15.09
2023-03-21T10:28:16.853Z,15.45
2023-03-21T10:30:49.379Z,15.80
2023-03-21T10:33:32.853Z,15.60
2023-03-21T10:36:09.439Z,15.77
2023-03-21T10:38:51.428Z,16.18
2023-03-21T10:41:21.150Z,16.18
2023-03-21T10:44:17.378Z,16.10
2023-03-21T10:47:09.565Z,15.95
2023-03-21T10:50:05.880Z,16.20
2023-03-21T10:52:30.372Z,16.36
2023-03-21T10:55:31.204Z,16.72
2023-03-21T10:58:18.707Z,17.70
2023-03-21T11:00:48.042Z,20.23
2023-03-21T11:03:39.261Z,21.84
2023-03-21T11:06:28.734Z,23.03
2023-03-21T11:09:23.162Z,22.64
2023-03-21T11:11:53.615Z,22.58
2023-03-21T11:14:41.794Z,22.11
2023-03-21T11:17:17.926Z,21.62
2023-03-21T11:20:09.166Z,21.15
2023-03-21T11:22:43.452Z,22.68
2023-03-21T11:25:23.274Z,23.03
2023-03-21T11:27:56.254Z,23.72
2023-03-21T11:30:28.157Z,22.61
2023-03-21T11:33:03.311Z,20.05
2023-03-21T11:35:39.623Z,22.26
2023-03-21T11:38:27.613Z,24.11
2023-03-21T11:41:02.515Z,24.09
2023-03-21T11:43:40.379Z,23.03
2023-03-21T11:46:13.759Z,18.92
2023-03-21T11:48:45.205Z,19.27
2023-03-21T11:51:37.141Z,19.31
2023-03-21T11:54:42.060Z,17.63
2023-03-21T11:57:45.408Z,17.88
2023-03-21T12:00:34.792Z,18.28
2023-03-21T12:03:32.815Z,18.22
2023-03-21T12:06:40.596Z,17.61
2023-03-21T12:10:27.561Z,17.63
2023-03-21T12:13:26.872Z,18.33
2023-03-21T12:17:05.493Z,16.99
2023-03-21T12:20:12.759Z,17.46
2023-03-21T12:23:24.417Z,18.64
2023-03-21T12:26:19.568Z,17.61
2023-03-21T12:29:07.731Z,17.07
2023-03-21T12:32:15.823Z,17.70
2023-03-21T12:35:19.595Z,17.81
2023-03-21T12:38:38.160Z,17.49
2023-03-21T12:41:43.915Z,18.01
2023-03-21T12:44:17.233Z,18.15
2023-03-21T12:47:09.206Z,17.82
2023-03-21T12:49:56.259Z,18.31
2023-03-21T12:52:35.535Z,17.63
2023-03-21T12:55:32.574Z,17.68
2023-03-21T12:58:16.616Z,18.40
2023-03-21T13:00:56.690Z,18.56
2023-03-21T13:03:47.072Z,18.95
2023-03-21T13:06:18.332Z,18.79
2023-03-21T13:09:10.508Z,17.92
2023-03-21T13:11:38.260Z,18.54
2023-03-21T13:14:26.652Z,19.18
2023-03-21T13:17:04.332Z,18.18
2023-03-21T13:19:58.390Z,18.54
2023-03-21T13:22:31.104Z,18.48
2023-03-21T13:25:15.654Z,18.86
2023-03-21T13:27:46.077Z,17.90
2023-03-21T13:30:26.407Z,17.74
2023-03-21T13:33:10.242Z,17.83
2023-03-21T13:35:42.902Z,18.59
2023-03-21T13:38:28.538Z,19.19
2023-03-21T13:41:17.891Z,19.12
2023-03-21T13:44:03.107Z,18.16
2023-03-21T13:46:34.168Z,18.39
2023-03-21T13:49:10.599Z,19.08
2023-03-21T13:51:43.487Z,19.14
2023-03-21T13:54:44.683Z,18.88
2023-03-21T13:57:32.021Z,18.94
2023-03-21T14:00:24.461Z,19.29
2023-03-21T14:03:06.432Z,19.46
2023-03-21T14:05:35.406Z,20.23
2023-03-21T14:08:24.727Z,19.92
2023-03-21T14:11:06.608Z,20.12
2023-03-21T14:13:38.003Z,19.62
2023-03-21T14:16:17.010Z,18.92
2023-03-21T14:18:54.393Z,19.07
2023-03-21T14:21:29.513Z,19.09
2023-03-21T14:24:07.353Z,18.41
2023-03-21T14:26:41.606Z,19.67
2023-03-21T14:29:25.035Z,19.38
2023-03-21T14:31:59.832Z,19.74
2023-03-21T14:34:32.019Z,19.39
2023-03-21T14:36:59.474Z,18.46
2023-03-21T14:39:34.114Z,18.93
2023-03-21T14:42:14.855Z,19.72
2023-03-21T14:45:00.874Z,20.19
2023-03-21T14:47:36.665Z,19.65
2023-03-21T14:50:04.382Z,19.27
2023-03-21T14:52:34.366Z,19.80
2023-03-21T14:55:13.928Z,19.63
2023-03-21T14:57:41.598Z,19.26
2023-03-21T15:00:23.408Z,20.03
2023-03-21T15:02:52.782Z,20.00
2023-03-21T15:05:37.743Z,19.21
2023-03-21T15:08:17.315Z,19.26
2023-03-21T15:11:07.149Z,19.90
2023-03-21T15:13:52.368Z,19.95
2023-03-21T15:16:20.858Z,19.31
2023-03-21T15:18:49.852Z,19.71
2023-03-21T15:21:35.161Z,19.57
2023-03-21T15:24:15.770Z,18.64
2023-03-21T15:26:49.336Z,19.78
2023-03-21T15:29:18.104Z,18.99
2023-03-21T15:31:48.638Z,19.88
2023-03-21T15:34:28.352Z,19.78
2023-03-21T15:37:13.298Z,20.56
2023-03-21T15:39:40.633Z,21.06
2023-03-21T15:42:29.749Z,20.42
2023-03-21T15:45:01.980Z,19.88
2023-03-21T15:47:49.445Z,20.15
2023-03-21T15:50:43.251Z,19.12
2023-03-21T15:53:20.348Z,19.59
2023-03-21T15:55:52.600Z,19.06
2023-03-21T15:58:28.110Z,18.78
2023-03-21T16:01:01.896Z,18.95
2023-03-21T16:03:47.947Z,18.67
2023-03-21T16:06:17.103Z,18.40
2023-03-21T16:08:54.280Z,18.65
2023-03-21T16:11:28.301Z,18.51
2023-03-21T16:13:56.780Z,18.21
2023-03-21T16:16:30.558Z,18.21
2023-03-21T16:19:00.343Z,18.08
2023-03-21T16:21:34.059Z,17.97
2023-03-21T16:24:02.133Z,18.10
2023-03-21T16:26:43.519Z,18.15
2023-03-21T16:29:14.179Z,17.95
2023-03-21T16:31:42.558Z,17.90
2023-03-21T16:34:10.701Z,17.81
2023-03-21T16:36:40.295Z,17.75
2023-03-21T16:39:21.923Z,17.58
2023-03-21T16:41:50.867Z,17.47
2023-03-21T16:44:19.983Z,17.44
2023-03-21T16:46:47.325Z,17.56
2023-03-21T16:49:24.838Z,17.53
2023-03-21T16:51:54.820Z,17.42
2023-03-21T16:54:22.311Z,17.31
2023-03-21T16:56:54.049Z,17.20
2023-03-21T16:59:21.823Z,17.10
2023-03-21T17:01:49.728Z,17.03
2023-03-21T17:04:18.926Z,17.01
2023-03-21T17:06:52.666Z,17.11
2023-03-21T17:09:27.148Z,17.08
2023-03-21T17:11:54.433Z,17.03
2023-03-21T17:14:22.165Z,16.92
2023-03-21T17:16:49.503Z,16.81
2023-03-21T17:19:27.307Z,16.72
2023-03-21T17:21:55.250Z,16.66
2023-03-21T17:24:23.763Z,16.59
2023-03-21T17:26:50.920Z,16.53
2023-03-21T17:29:18.095Z,16.42
2023-03-21T17:31:47.425Z,16.31
2023-03-21T17:34:15.802Z,16.21
2023-03-21T17:36:46.216Z,16.09
2023-03-21T17:39:24.928Z,15.97
2023-03-21T17:41:53.314Z,15.87
2023-03-21T17:44:21.620Z,15.79
2023-03-21T17:46:51.699Z,15.64
2023-03-21T17:49:19.891Z,15.52
2023-03-21T17:51:47.208Z,15.45
2023-03-21T17:54:14.424Z,15.33
2023-03-21T17:56:42.020Z,15.21
2023-03-21T17:59:14.228Z,15.03
2023-03-21T18:01:42.574Z,14.87
2023-03-21T18:04:10.923Z,14.77
2023-03-21T18:06:39.077Z,14.71
2023-03-21T18:09:11.376Z,14.63
2023-03-21T18:11:40.239Z,14.58
2023-03-21T18:14:16.181Z,14.51
2023-03-21T18:16:46.737Z,14.45
2023-03-21T18:19:14.550Z,14.42
2023-03-21T18:21:44.907Z,14.51
2023-03-21T18:24:13.204Z,14.47
2023-03-21T18:26:41.038Z,14.40
2023-03-21T18:30:08.095Z,14.32
2023-03-21T18:32:06.342Z,14.27
2023-03-21T18:34:38.752Z,14.25
2023-03-21T18:37:09.346Z,14.27
2023-03-21T18:39:38.184Z,14.18
2023-03-21T18:42:07.797Z,14.14
2023-03-21T18:44:45.546Z,14.12
2023-03-21T18:47:14.497Z,14.09
2023-03-21T18:50:13.304Z,14.08
2023-03-21T18:52:29.405Z,13.96
2023-03-21T18:54:56.558Z,13.92
2023-03-21T18:57:36.260Z,13.87
2023-03-21T19:00:17.290Z,13.83
2023-03-21T19:02:51.025Z,13.89
2023-03-21T19:05:23.461Z,13.94
2023-03-21T19:07:53.165Z,14.12
2023-03-21T19:10:23.564Z,14.26
2023-03-21T19:12:54.597Z,14.27
2023-03-21T19:15:24.115Z,14.23
2023-03-21T19:20:46.521Z,14.23
2023-03-21T19:23:14.261Z,14.27
2023-03-21T19:25:42.714Z,14.26
2023-03-21T19:28:10.044Z,14.19
2023-03-21T19:30:37.512Z,14.22
2023-03-21T19:33:05.189Z,14.08
2023-03-21T19:35:35.340Z,14.06
2023-03-21T19:38:03.608Z,14.08
2023-03-21T19:40:31.597Z,13.97
2023-03-21T19:42:58.880Z,13.76
2023-03-21T19:45:26.546Z,13.61
2023-03-21T19:47:53.901Z,13.47
2023-03-21T19:50:49.336Z,13.38
2023-03-21T19:53:08.762Z,13.35
2023-03-21T19:55:36.389Z,13.32
2023-03-21T19:58:04.136Z,13.34
2023-03-21T20:00:31.574Z,13.28
2023-03-21T20:02:58.923Z,13.17
2023-03-21T20:05:27.104Z,13.14
2023-03-21T20:07:57.191Z,13.09
2023-03-21T20:10:28.301Z,13.02
2023-03-21T20:12:56.300Z,12.98
2023-03-21T20:15:26.821Z,12.89
2023-03-21T20:17:56.104Z,12.86
2023-03-21T20:20:23.365Z,12.82
2023-03-21T20:23:06.347Z,12.84
2023-03-21T20:25:35.425Z,12.77
2023-03-21T20:28:25.551Z,12.70
2023-03-21T20:30:56.821Z,12.62
2023-03-21T20:33:25.049Z,12.47
2023-03-21T20:38:52.616Z,12.37
2023-03-21T20:41:19.849Z,12.38
2023-03-21T20:44:34.333Z,12.35
2023-03-21T20:46:36.472Z,12.28
2023-03-21T20:49:06.616Z,12.24
2023-03-21T20:54:21.354Z,12.20
2023-03-21T20:56:48.882Z,12.21
2023-03-21T20:59:25.554Z,12.13
2023-03-21T21:01:54.142Z,12.15
2023-03-21T21:04:22.353Z,12.13
2023-03-21T21:06:50.341Z,12.16
2023-03-21T21:09:17.613Z,12.20
2023-03-21T21:14:32.014Z,12.18
2023-03-21T21:17:07.693Z,12.08
2023-03-21T21:19:44.689Z,11.94
2023-03-21T21:22:11.949Z,11.83
2023-03-21T21:24:39.327Z,11.80
2023-03-21T21:27:06.491Z,11.77
2023-03-21T21:29:34.472Z,11.79
2023-03-21T21:32:02.471Z,11.75
2023-03-21T21:34:30.332Z,11.72
2023-03-21T21:36:57.523Z,11.65
2023-03-21T21:39:26.436Z,11.59
2023-03-21T21:41:54.325Z,11.52
2023-03-21T21:44:21.701Z,11.46
2023-03-21T21:46:48.934Z,11.44
2023-03-21T21:49:16.424Z,11.42
2023-03-21T21:51:47.738Z,11.44
2023-03-21T21:54:18.303Z,11.43
2023-03-21T21:56:48.676Z,11.38
2023-03-21T21:59:16.226Z,11.39
2023-03-21T22:01:43.404Z,11.36
2023-03-21T22:04:11.337Z,11.31
2023-03-21T22:06:38.620Z,11.36
2023-03-21T22:09:06.965Z,11.34
2023-03-21T22:11:34.407Z,11.25
2023-03-21T22:14:02.221Z,11.19
2023-03-21T22:16:29.607Z,11.19
2023-03-21T22:18:56.980Z,11.11
2023-03-21T22:21:24.512Z,11.05
2023-03-21T22:23:51.818Z,11.12
2023-03-21T22:26:19.187Z,11.11
2023-03-21T22:28:46.505Z,11.10
2023-03-21T22:31:17.223Z,11.15
2023-03-21T22:33:45.705Z,11.20
2023-03-21T22:36:13.014Z,11.22
2023-03-21T22:38:42.192Z,11.21
2023-03-21T22:41:10.929Z,11.11
2023-03-21T22:43:38.237Z,11.16
2023-03-21T22:46:06.516Z,11.17
2023-03-21T22:48:34.801Z,11.10
2023-03-21T22:51:02.216Z,11.11
2023-03-21T22:53:30.467Z,11.01
2023-03-21T22:55:57.729Z,10.89
2023-03-21T22:58:25.074Z,10.76
2023-03-21T23:00:52.451Z,10.65
2023-03-21T23:03:19.790Z,10.59
2023-03-21T23:05:47.142Z,10.59
2023-03-21T23:08:14.462Z,10.55
2023-03-21T23:10:43.884Z,10.47
2023-03-21T23:13:12.008Z,10.43
2023-03-21T23:15:39.964Z,10.42
2023-03-21T23:18:07.417Z,10.40
2023-03-21T23:20:35.086Z,10.38
2023-03-21T23:23:02.857Z,10.33
2023-03-21T23:25:30.400Z,10.20
2023-03-21T23:27:57.877Z,10.17
2023-03-21T23:30:26.203Z,10.26
2023-03-21T23:32:53.494Z,10.20
2023-03-21T23:35:21.072Z,10.11
2023-03-21T23:37:52.665Z,10.14
2023-03-21T23:40:21.236Z,10.12
2023-03-21T23:42:48.594Z,10.18
2023-03-21T23:45:16.051Z,10.12
2023-03-21T23:47:43.724Z,9.96
2023-03-21T23:50:11.606Z,9.88
2023-03-21T23:52:41.641Z,9.79
2023-03-21T23:55:09.765Z,9.77
2023-03-21T23:57:41.665Z,9.74
